createdAt,value
2022-11-01T00:00:30.022Z,95358.88
2022-11-01T00:02:31.792Z,95359.34
2022-11-01T00:04:33.406Z,95353.59
2022-11-01T00:06:36.135Z,95354.41
2022-11-01T00:08:37.839Z,95355.72
2022-11-01T00:10:39.427Z,95352.59
2022-11-01T00:12:41.463Z,95363.78
2022-11-01T00:14:43.094Z,95358.38
2022-11-01T00:16:44.735Z,95349.47
2022-11-01T00:18:46.973Z,95354.06
2022-11-01T00:20:48.648Z,95354.25
2022-11-01T00:22:50.296Z,95352.59
2022-11-01T00:24:54.789Z,95354.25
2022-11-01T00:26:56.777Z,95359.34
2022-11-01T00:28:58.385Z,95356.53
2022-11-01T00:31:00.375Z,95355.38
2022-11-01T00:33:01.975Z,95352.25
2022-11-01T00:35:03.777Z,95351.41
2022-11-01T00:37:05.333Z,95351.41
2022-11-01T00:39:07.950Z,95355.38
2022-11-01T00:41:09.558Z,95349.28
2022-11-01T00:43:12.096Z,95353.91
2022-11-01T00:45:13.941Z,95352.78
2022-11-01T00:47:15.528Z,95347.00
2022-11-01T00:49:17.498Z,95344.69
2022-11-01T00:51:19.116Z,95346.34
2022-11-01T00:53:21.005Z,95353.28
2022-11-01T00:55:22.864Z,95352.94
2022-11-01T00:57:24.527Z,95350.31
2022-11-01T00:59:26.119Z,95351.78
2022-11-01T01:01:27.845Z,95353.88
2022-11-01T01:03:29.578Z,95354.16
2022-11-01T01:05:31.922Z,95353.34
2022-11-01T01:07:34.179Z,95360.75
2022-11-01T01:09:35.970Z,95361.06
2022-11-01T01:11:37.625Z,95356.91
2022-11-01T01:13:39.333Z,95359.53
2022-11-01T01:15:41.626Z,95360.03
2022-11-01T01:17:43.232Z,95356.75
2022-11-01T01:19:45.108Z,95353.16
2022-11-01T01:21:46.764Z,95354.78
2022-11-01T01:23:49.022Z,95360.31
2022-11-01T01:25:50.646Z,95354.53
2022-11-01T01:27:52.281Z,95356.88
2022-11-01T01:29:53.865Z,95352.25
2022-11-01T01:31:55.551Z,95356.59
2022-11-01T01:34:00.212Z,95357.78
2022-11-01T01:36:05.741Z,95349.41
2022-11-01T01:38:07.846Z,95359.44
2022-11-01T01:40:09.856Z,95356.47
2022-11-01T01:42:15.666Z,95361.44
2022-11-01T01:44:42.223Z,95360.28
2022-11-01T01:46:43.845Z,95362.44
2022-11-01T01:48:48.577Z,95365.72
2022-11-01T01:51:15.537Z,95362.94
2022-11-01T01:53:33.721Z,95366.88
2022-11-01T01:55:57.247Z,95366.69
2022-11-01T01:57:59.475Z,95372.84
2022-11-01T02:00:01.507Z,95365.19
2022-11-01T02:02:03.437Z,95368.84
2022-11-01T02:04:08.763Z,95371.38
2022-11-01T02:06:12.800Z,95368.16
2022-11-01T02:08:14.778Z,95360.66
2022-11-01T02:10:17.000Z,95360.56
2022-11-01T02:12:19.042Z,95367.81
2022-11-01T02:14:21.617Z,95364.56
2022-11-01T02:16:50.545Z,95365.25
2022-11-01T02:19:10.417Z,95364.91
2022-11-01T02:21:30.553Z,95361.94
2022-11-01T02:24:07.254Z,95372.69
2022-11-01T02:26:21.311Z,95378.06
2022-11-01T02:28:44.057Z,95379.47
2022-11-01T02:31:03.955Z,95379.06
2022-11-01T02:33:05.868Z,95376.88
2022-11-01T02:35:25.647Z,95382.47
2022-11-01T02:37:35.373Z,95380.66
2022-11-01T02:39:41.174Z,95380.50
2022-11-01T02:41:50.420Z,95384.50
2022-11-01T02:44:07.966Z,95388.50
2022-11-01T02:46:28.756Z,95392.50
2022-11-01T02:48:30.353Z,95396.50
2022-11-01T02:50:44.088Z,95392.78
2022-11-01T02:52:46.274Z,95400.75
2022-11-01T02:54:54.786Z,95399.53
2022-11-01T02:56:59.150Z,95392.38
2022-11-01T02:59:01.384Z,95388.66
2022-11-01T03:01:03.024Z,95398.13
2022-11-01T03:03:15.859Z,95398.16
2022-11-01T03:05:25.500Z,95398.91
2022-11-01T03:07:27.082Z,95397.00
2022-11-01T03:09:28.753Z,95395.53
2022-11-01T03:11:57.223Z,95399.34
2022-11-01T03:14:23.416Z,95406.28
2022-11-01T03:16:32.677Z,95407.56
2022-11-01T03:18:36.755Z,95410.06
2022-11-01T03:20:48.338Z,95407.81
2022-11-01T03:22:56.791Z,95401.69
2022-11-01T03:25:03.760Z,95405.00
2022-11-01T03:27:10.551Z,95406.94
2022-11-01T03:29:12.232Z,95411.88
2022-11-01T03:31:16.834Z,95406.91
2022-11-01T03:33:18.964Z,95404.09
2022-11-01T03:35:26.835Z,95408.66
2022-11-01T03:37:29.282Z,95401.78
2022-11-01T03:39:43.983Z,95394.84
2022-11-01T03:41:49.701Z,95399.28
2022-11-01T03:43:52.087Z,95402.31
2022-11-01T03:45:54.303Z,95408.22
2022-11-01T03:47:56.933Z,95402.44
2022-11-01T03:50:13.391Z,95403.59
2022-11-01T03:52:15.007Z,95410.28
2022-11-01T03:54:16.695Z,95410.53
2022-11-01T03:56:18.263Z,95404.13
2022-11-01T03:58:20.038Z,95407.31
2022-11-01T04:00:31.400Z,95412.47
2022-11-01T04:02:32.981Z,95413.72
2022-11-01T04:04:34.573Z,95408.47
2022-11-01T04:06:36.241Z,95414.66
2022-11-01T04:08:38.465Z,95414.19
2022-11-01T04:10:40.107Z,95415.09
2022-11-01T04:12:45.302Z,95411.75
2022-11-01T04:15:05.192Z,95408.09
2022-11-01T04:17:27.336Z,95406.66
2022-11-01T04:19:47.581Z,95403.19
2022-11-01T04:21:49.138Z,95407.47
2022-11-01T04:23:50.993Z,95399.03
2022-11-01T04:25:52.560Z,95407.38
2022-11-01T04:27:56.578Z,95407.19
2022-11-01T04:29:58.301Z,95404.66
2022-11-01T04:31:59.956Z,95412.59
2022-11-01T04:34:02.526Z,95398.31
2022-11-01T04:36:05.771Z,95404.69
2022-11-01T04:38:07.531Z,95399.25
2022-11-01T04:40:09.744Z,95401.66
2022-11-01T04:42:11.379Z,95405.00
2022-11-01T04:44:13.006Z,95406.75
2022-11-01T04:46:14.792Z,95408.91
2022-11-01T04:48:17.105Z,95407.78
2022-11-01T04:50:20.274Z,95404.19
2022-11-01T04:52:22.164Z,95408.59
2022-11-01T04:54:23.907Z,95406.50
2022-11-01T04:56:25.541Z,95412.75
2022-11-01T04:58:27.136Z,95415.72
2022-11-01T05:00:28.851Z,95414.91
2022-11-01T05:02:31.255Z,95419.78
2022-11-01T05:04:32.806Z,95418.16
2022-11-01T05:06:35.619Z,95415.66
2022-11-01T05:08:37.295Z,95420.91
2022-11-01T05:10:41.151Z,95418.97
2022-11-01T05:12:42.857Z,95418.38
2022-11-01T05:14:44.425Z,95431.03
2022-11-01T05:16:46.041Z,95427.75
2022-11-01T05:18:48.064Z,95432.19
2022-11-01T05:20:49.752Z,95432.84
2022-11-01T05:22:51.403Z,95433.81
2022-11-01T05:24:53.654Z,95443.03
2022-11-01T05:26:55.365Z,95441.09
2022-11-01T05:28:56.939Z,95439.81
2022-11-01T05:30:58.658Z,95443.94
2022-11-01T05:33:01.498Z,95444.78
2022-11-01T05:35:03.153Z,95441.69
2022-11-01T05:37:04.954Z,95440.56
2022-11-01T05:39:06.560Z,95442.56
2022-11-01T05:41:08.224Z,95441.97
2022-11-01T05:43:09.918Z,95443.94
2022-11-01T05:45:11.632Z,95445.00
2022-11-01T05:47:17.074Z,95448.59
2022-11-01T05:49:19.190Z,95457.31
2022-11-01T05:51:21.006Z,95448.44
2022-11-01T05:53:22.548Z,95451.13
2022-11-01T05:55:24.147Z,95453.28
2022-11-01T05:57:30.920Z,95455.91
2022-11-01T05:59:34.771Z,95463.84
2022-11-01T06:01:36.421Z,95461.09
2022-11-01T06:03:38.161Z,95461.09
2022-11-01T06:05:39.868Z,95468.22
2022-11-01T06:07:41.463Z,95463.34
2022-11-01T06:09:43.075Z,95466.34
2022-11-01T06:11:44.632Z,95457.63
2022-11-01T06:13:46.167Z,95463.59
2022-11-01T06:15:47.972Z,95462.66
2022-11-01T06:17:56.347Z,95463.03
2022-11-01T06:19:58.374Z,95468.09
2022-11-01T06:22:00.017Z,95474.41
2022-11-01T06:24:01.649Z,95468.50
2022-11-01T06:26:04.353Z,95474.25
2022-11-01T06:28:06.094Z,95475.91
2022-11-01T06:30:08.515Z,95474.91
2022-11-01T06:32:10.140Z,95468.16
2022-11-01T06:34:11.742Z,95470.66
2022-11-01T06:36:13.303Z,95471.31
2022-11-01T06:38:14.865Z,95469.16
2022-11-01T06:40:16.826Z,95477.25
2022-11-01T06:42:18.488Z,95471.19
2022-11-01T06:44:20.065Z,95466.91
2022-11-01T06:46:21.661Z,95473.19
2022-11-01T06:48:23.308Z,95478.78
2022-11-01T06:50:25.364Z,95478.63
2022-11-01T06:52:27.030Z,95475.50
2022-11-01T06:54:28.717Z,95477.47
2022-11-01T06:56:30.269Z,95483.09
2022-11-01T06:58:31.942Z,95483.72
2022-11-01T07:00:33.683Z,95477.97
2022-11-01T07:02:35.986Z,95477.16
2022-11-01T07:04:38.870Z,95477.31
2022-11-01T07:06:40.555Z,95470.22
2022-11-01T07:08:42.144Z,95474.03
2022-11-01T07:10:44.149Z,95476.47
2022-11-01T07:12:45.726Z,95472.03
2022-11-01T07:14:47.351Z,95473.56
2022-11-01T07:16:49.087Z,95473.56
2022-11-01T07:18:51.660Z,95480.47
2022-11-01T07:20:53.218Z,95478.19
2022-11-01T07:23:07.147Z,95473.06
2022-11-01T07:25:10.455Z,95479.16
2022-11-01T07:27:14.321Z,95475.34
2022-11-01T07:29:20.686Z,95479.94
2022-11-01T07:31:22.539Z,95476.13
2022-11-01T07:33:24.129Z,95472.19
2022-11-01T07:35:26.501Z,95477.47
2022-11-01T07:37:31.011Z,95470.88
2022-11-01T07:39:32.627Z,95475.63
2022-11-01T07:41:34.176Z,95478.41
2022-11-01T07:43:36.996Z,95475.09
2022-11-01T07:45:38.619Z,95475.59
2022-11-01T07:47:40.240Z,95476.06
2022-11-01T07:49:41.856Z,95475.88
2022-11-01T07:51:43.433Z,95471.53
2022-11-01T07:53:45.028Z,95476.31
2022-11-01T07:55:46.859Z,95472.66
2022-11-01T07:57:48.427Z,95467.31
2022-11-01T07:59:50.003Z,95470.22
2022-11-01T08:01:51.839Z,95470.38
2022-11-01T08:03:53.503Z,95471.28
2022-11-01T08:05:55.973Z,95474.88
2022-11-01T08:07:57.825Z,95475.94
2022-11-01T08:09:59.491Z,95467.78
2022-11-01T08:12:01.973Z,95469.84
2022-11-01T08:14:05.188Z,95461.31
2022-11-01T08:16:07.837Z,95462.25
2022-11-01T08:18:09.771Z,95461.56
2022-11-01T08:20:11.760Z,95464.31
2022-11-01T08:22:13.378Z,95457.47
2022-11-01T08:24:15.118Z,95455.72
2022-11-01T08:26:16.748Z,95455.63
2022-11-01T08:28:20.219Z,95455.34
2022-11-01T08:30:23.000Z,95446.88
2022-11-01T08:32:24.698Z,95453.06
2022-11-01T08:34:26.468Z,95443.69
2022-11-01T08:36:28.115Z,95448.41
2022-11-01T08:38:29.678Z,95441.47
2022-11-01T08:40:32.648Z,95441.88
2022-11-01T08:42:34.229Z,95437.56
2022-11-01T08:44:35.814Z,95441.44
2022-11-01T08:46:37.428Z,95432.66
2022-11-01T08:48:39.172Z,95435.41
2022-11-01T08:50:41.014Z,95447.91
2022-11-01T08:52:43.013Z,95444.06
2022-11-01T08:54:44.856Z,95443.78
2022-11-01T08:56:46.478Z,95441.22
2022-11-01T08:58:52.091Z,95438.22
2022-11-01T09:00:53.843Z,95441.03
2022-11-01T09:02:55.583Z,95436.56
2022-11-01T09:04:57.143Z,95428.78
2022-11-01T09:06:58.807Z,95425.94
2022-11-01T09:09:01.081Z,95421.56
2022-11-01T09:11:02.670Z,95427.25
2022-11-01T09:13:04.850Z,95419.09
2022-11-01T09:15:07.047Z,95421.94
2022-11-01T09:17:08.840Z,95425.31
2022-11-01T09:19:10.665Z,95419.00
2022-11-01T09:21:12.271Z,95422.38
2022-11-01T09:23:13.869Z,95421.97
2022-11-01T09:25:15.565Z,95419.84
2022-11-01T09:27:17.184Z,95420.47
2022-11-01T09:29:19.029Z,95417.63
2022-11-01T09:31:21.594Z,95417.44
2022-11-01T09:33:24.367Z,95412.69
2022-11-01T09:35:26.027Z,95403.56
2022-11-01T09:37:27.810Z,95414.97
2022-11-01T09:39:29.389Z,95406.63
2022-11-01T09:41:47.484Z,95406.34
2022-11-01T09:43:55.104Z,95404.59
2022-11-01T09:45:59.275Z,95397.06
2022-11-01T09:48:02.415Z,95394.28
2022-11-01T09:50:05.778Z,95392.06
2022-11-01T09:52:07.762Z,95386.16
2022-11-01T09:54:10.481Z,95389.66
2022-11-01T09:56:19.205Z,95381.47
2022-11-01T09:58:48.736Z,95385.19
2022-11-01T10:01:15.598Z,95373.13
2022-11-01T10:03:33.788Z,95372.69
2022-11-01T10:05:48.803Z,95377.03
2022-11-01T10:08:09.868Z,95369.00
2022-11-01T10:10:33.987Z,95372.50
2022-11-01T10:12:44.282Z,95369.84
2022-11-01T10:15:01.162Z,95372.13
2022-11-01T10:17:14.683Z,95362.28
2022-11-01T10:19:21.946Z,95367.56
2022-11-01T10:21:27.208Z,95356.91
2022-11-01T10:23:53.939Z,95357.72
2022-11-01T10:25:55.379Z,95360.19
2022-11-01T10:28:21.130Z,95354.63
2022-11-01T10:30:22.995Z,95344.56
2022-11-01T10:32:58.149Z,95346.84
2022-11-01T10:35:04.640Z,95341.84
2022-11-01T10:37:24.094Z,95347.81
2022-11-01T10:39:54.255Z,95339.56
2022-11-01T10:41:58.640Z,95339.13
2022-11-01T10:44:07.206Z,95337.84
2022-11-01T10:46:18.018Z,95323.88
2022-11-01T10:48:45.897Z,95325.53
2022-11-01T10:50:47.816Z,95332.59
2022-11-01T10:52:52.244Z,95329.41
2022-11-01T10:54:56.183Z,95322.84
2022-11-01T10:57:02.967Z,95316.75
2022-11-01T10:59:08.369Z,95327.75
2022-11-01T11:01:17.166Z,95317.66
2022-11-01T11:03:22.769Z,95322.31
2022-11-01T11:05:25.931Z,95311.78
2022-11-01T11:07:31.297Z,95306.22
2022-11-01T11:09:34.950Z,95306.38
2022-11-01T11:11:44.301Z,95314.94
2022-11-01T11:13:49.323Z,95312.16
2022-11-01T11:16:00.512Z,95311.31
2022-11-01T11:18:02.743Z,95303.91
2022-11-01T11:20:07.356Z,95302.25
2022-11-01T11:22:09.285Z,95301.00
2022-11-01T11:24:19.736Z,95297.06
2022-11-01T11:26:21.844Z,95298.84
2022-11-01T11:28:31.463Z,95297.09
2022-11-01T11:30:35.317Z,95297.72
2022-11-01T11:32:38.953Z,95298.34
2022-11-01T11:34:41.280Z,95294.50
2022-11-01T11:36:44.480Z,95292.72
2022-11-01T11:38:47.806Z,95288.56
2022-11-01T11:40:49.526Z,95287.88
2022-11-01T11:42:53.772Z,95291.94
2022-11-01T11:45:09.504Z,95277.66
2022-11-01T11:47:20.851Z,95281.34
2022-11-01T11:49:26.802Z,95284.25
2022-11-01T11:51:29.867Z,95273.34
2022-11-01T11:53:33.472Z,95276.41
2022-11-01T11:55:46.160Z,95273.50
2022-11-01T11:57:52.745Z,95271.31
2022-11-01T12:00:05.329Z,95274.00
2022-11-01T12:02:16.094Z,95277.88
2022-11-01T12:04:19.087Z,95267.34
2022-11-01T12:06:26.088Z,95268.53
2022-11-01T12:08:48.596Z,95262.75
2022-11-01T12:10:57.557Z,95264.38
2022-11-01T12:12:59.550Z,95261.72
2022-11-01T12:15:03.803Z,95260.25
2022-11-01T12:17:22.864Z,95253.69
2022-11-01T12:19:31.805Z,95256.97
2022-11-01T12:21:43.147Z,95247.75
2022-11-01T12:23:45.529Z,95250.88
2022-11-01T12:25:47.348Z,95249.16
2022-11-01T12:27:55.431Z,95240.50
2022-11-01T12:30:05.150Z,95239.84
2022-11-01T12:32:12.599Z,95240.47
2022-11-01T12:34:28.201Z,95234.66
2022-11-01T12:36:43.817Z,95233.97
2022-11-01T12:38:51.608Z,95237.84
2022-11-01T12:40:54.687Z,95240.06
2022-11-01T12:43:03.112Z,95232.06
2022-11-01T12:45:16.415Z,95235.56
2022-11-01T12:47:25.126Z,95232.63
2022-11-01T12:49:29.305Z,95233.47
2022-11-01T12:51:38.354Z,95239.41
2022-11-01T12:53:47.376Z,95235.09
2022-11-01T12:55:48.978Z,95230.81
2022-11-01T12:57:50.631Z,95228.94
2022-11-01T12:59:52.347Z,95224.63
2022-11-01T13:01:59.714Z,95233.03
2022-11-01T13:04:04.425Z,95225.22
2022-11-01T13:06:15.442Z,95224.88
2022-11-01T13:08:26.564Z,95223.59
2022-11-01T13:10:33.440Z,95229.31
2022-11-01T13:12:41.074Z,95218.41
2022-11-01T13:14:58.231Z,95222.56
2022-11-01T13:17:09.262Z,95218.66
2022-11-01T13:19:19.037Z,95220.72
2022-11-01T13:21:38.941Z,95222.78
2022-11-01T13:23:49.155Z,95227.09
2022-11-01T13:26:05.990Z,95223.59
2022-11-01T13:28:18.764Z,95228.94
2022-11-01T13:30:21.139Z,95219.88
2022-11-01T13:32:44.679Z,95216.19
2022-11-01T13:35:07.232Z,95217.06
2022-11-01T13:37:12.199Z,95221.00
2022-11-01T13:39:37.724Z,95213.81
2022-11-01T13:41:41.020Z,95216.47
2022-11-01T13:43:55.090Z,95219.16
2022-11-01T13:46:02.581Z,95218.13
2022-11-01T13:48:32.040Z,95208.94
2022-11-01T13:50:48.937Z,95221.00
2022-11-01T13:53:00.559Z,95208.25
2022-11-01T13:55:27.163Z,95213.13
2022-11-01T13:57:29.138Z,95211.28
2022-11-01T13:59:44.894Z,95210.47
2022-11-01T14:01:47.020Z,95204.78
2022-11-01T14:03:50.014Z,95201.84
2022-11-01T14:06:06.958Z,95206.19
2022-11-01T14:08:28.301Z,95201.44
2022-11-01T14:10:30.528Z,95204.69
2022-11-01T14:12:44.878Z,95195.41
2022-11-01T14:14:50.931Z,95192.75
2022-11-01T14:16:53.392Z,95193.31
2022-11-01T14:19:04.078Z,95196.59
2022-11-01T14:21:22.302Z,95195.19
2022-11-01T14:23:29.912Z,95193.75
2022-11-01T14:25:32.810Z,95204.91
2022-11-01T14:27:40.626Z,95192.81
2022-11-01T14:29:42.719Z,95201.25
2022-11-01T14:31:46.002Z,95196.38
2022-11-01T14:33:48.556Z,95192.31
2022-11-01T14:35:56.295Z,95196.66
2022-11-01T14:38:03.328Z,95198.97
2022-11-01T14:40:27.003Z,95197.41
2022-11-01T14:42:35.406Z,95191.69
2022-11-01T14:44:39.931Z,95197.91
2022-11-01T14:46:46.662Z,95195.31
2022-11-01T14:49:29.891Z,95202.59
2022-11-01T14:51:48.598Z,95199.59
2022-11-01T14:53:55.182Z,95198.44
2022-11-01T14:56:17.658Z,95201.59
2022-11-01T14:58:22.315Z,95195.13
2022-11-01T15:00:29.730Z,95197.66
2022-11-01T15:02:31.841Z,95202.47
2022-11-01T15:04:42.284Z,95194.34
2022-11-01T15:06:44.153Z,95195.84
2022-11-01T15:08:45.737Z,95192.84
2022-11-01T15:10:47.715Z,95193.25
2022-11-01T15:13:07.559Z,95190.47
2022-11-01T15:15:19.695Z,95195.00
2022-11-01T15:17:27.114Z,95186.44
2022-11-01T15:19:32.972Z,95195.50
2022-11-01T15:21:35.191Z,95187.13
2022-11-01T15:23:38.143Z,95193.50
2022-11-01T15:25:40.796Z,95192.53
2022-11-01T15:27:44.378Z,95192.75
2022-11-01T15:29:45.893Z,95198.09
2022-11-01T15:31:53.356Z,95199.09
2022-11-01T15:34:02.451Z,95197.47
2022-11-01T15:36:18.789Z,95197.91
2022-11-01T15:38:21.226Z,95204.03
2022-11-01T15:40:36.999Z,95207.56
2022-11-01T15:42:38.848Z,95212.66
2022-11-01T15:44:45.204Z,95203.88
2022-11-01T15:46:48.906Z,95208.16
2022-11-01T15:48:50.961Z,95209.22
2022-11-01T15:50:57.832Z,95213.28
2022-11-01T15:53:04.349Z,95214.72
2022-11-01T15:55:25.128Z,95218.19
2022-11-01T15:57:43.296Z,95216.34
2022-11-01T15:59:53.757Z,95211.00
2022-11-01T16:01:57.560Z,95214.69
2022-11-01T16:04:03.277Z,95216.91
2022-11-01T16:06:10.977Z,95223.47
2022-11-01T16:08:22.870Z,95226.69
2022-11-01T16:10:29.897Z,95216.50
2022-11-01T16:12:34.472Z,95222.22
2022-11-01T16:14:37.957Z,95227.72
2022-11-01T16:16:59.579Z,95232.84
2022-11-01T16:19:01.500Z,95222.59
2022-11-01T16:21:30.044Z,95223.00
2022-11-01T16:23:32.586Z,95233.03
2022-11-01T16:25:37.596Z,95232.59
2022-11-01T16:28:10.206Z,95234.00
2022-11-01T16:30:34.499Z,95234.81
2022-11-01T16:32:36.338Z,95243.19
2022-11-01T16:34:37.897Z,95240.28
2022-11-01T16:36:41.751Z,95238.03
2022-11-01T16:38:44.363Z,95238.44
2022-11-01T16:40:45.964Z,95244.13
2022-11-01T16:42:48.727Z,95241.28
2022-11-01T16:44:54.918Z,95240.84
2022-11-01T16:46:56.600Z,95243.06
2022-11-01T16:49:00.801Z,95250.22
2022-11-01T16:51:03.763Z,95247.34
2022-11-01T16:53:09.511Z,95253.03
2022-11-01T16:55:17.112Z,95251.41
2022-11-01T16:57:24.296Z,95245.66
2022-11-01T16:59:35.686Z,95247.66
2022-11-01T17:01:38.111Z,95254.00
2022-11-01T17:03:41.117Z,95246.41
2022-11-01T17:05:42.964Z,95256.22
2022-11-01T17:07:45.188Z,95252.94
2022-11-01T17:09:46.773Z,95260.25
2022-11-01T17:11:51.696Z,95254.97
2022-11-01T17:13:53.598Z,95255.38
2022-11-01T17:15:55.223Z,95254.91
2022-11-01T17:17:56.893Z,95255.31
2022-11-01T17:20:00.951Z,95255.50
2022-11-01T17:22:08.868Z,95261.00
2022-11-01T17:24:10.767Z,95255.06
2022-11-01T17:26:15.783Z,95262.41
2022-11-01T17:28:21.649Z,95257.50
2022-11-01T17:30:23.424Z,95264.84
2022-11-01T17:32:24.993Z,95258.91
2022-11-01T17:34:28.780Z,95254.81
2022-11-01T17:36:30.835Z,95261.94
2022-11-01T17:38:34.716Z,95260.47
2022-11-01T17:40:36.697Z,95261.69
2022-11-01T17:42:38.551Z,95261.06
2022-11-01T17:44:40.174Z,95263.09
2022-11-01T17:46:42.893Z,95261.47
2022-11-01T17:48:44.605Z,95255.53
2022-11-01T17:50:46.765Z,95262.69
2022-11-01T17:52:48.601Z,95264.69
2022-11-01T17:54:50.214Z,95261.59
2022-11-01T17:56:51.782Z,95262.56
2022-11-01T17:58:53.868Z,95263.91
2022-11-01T18:00:55.753Z,95263.78
2022-11-01T18:02:57.471Z,95264.94
2022-11-01T18:04:59.087Z,95267.88
2022-11-01T18:07:03.315Z,95267.56
2022-11-01T18:09:15.792Z,95269.91
2022-11-01T18:11:39.094Z,95267.53
2022-11-01T18:13:49.393Z,95266.50
2022-11-01T18:15:59.805Z,95270.66
2022-11-01T18:18:24.777Z,95267.78
2022-11-01T18:20:31.671Z,95269.78
2022-11-01T18:22:55.984Z,95271.81
2022-11-01T18:25:16.735Z,95272.72
2022-11-01T18:27:33.413Z,95278.75
2022-11-01T18:29:39.966Z,95275.13
2022-11-01T18:31:46.226Z,95282.13
2022-11-01T18:34:23.305Z,95274.06
2022-11-01T18:36:27.447Z,95272.31
2022-11-01T18:38:43.611Z,95275.59
2022-11-01T18:40:51.191Z,95279.69
2022-11-01T18:42:53.984Z,95279.97
2022-11-01T18:44:57.983Z,95284.63
2022-11-01T18:47:07.854Z,95287.28
2022-11-01T18:49:11.130Z,95286.56
2022-11-01T18:51:21.598Z,95286.91
2022-11-01T18:53:24.234Z,95287.78
2022-11-01T18:55:25.889Z,95289.84
2022-11-01T18:57:29.121Z,95288.47
2022-11-01T18:59:34.099Z,95293.38
2022-11-01T19:01:37.697Z,95299.72
2022-11-01T19:03:39.350Z,95298.69
2022-11-01T19:05:41.949Z,95292.56
2022-11-01T19:08:09.699Z,95298.03
2022-11-01T19:10:15.644Z,95302.72
2022-11-01T19:12:29.627Z,95299.16
2022-11-01T19:14:32.810Z,95301.84
2022-11-01T19:16:34.535Z,95302.22
2022-11-01T19:18:40.705Z,95301.09
2022-11-01T19:20:50.056Z,95305.91
2022-11-01T19:22:55.240Z,95306.09
2022-11-01T19:24:56.823Z,95308.19
2022-11-01T19:26:59.094Z,95302.00
2022-11-01T19:29:00.970Z,95300.47
2022-11-01T19:31:33.219Z,95303.56
2022-11-01T19:33:37.751Z,95302.00
2022-11-01T19:35:39.345Z,95306.34
2022-11-01T19:37:42.263Z,95303.00
2022-11-01T19:39:43.936Z,95303.19
2022-11-01T19:41:45.670Z,95303.00
2022-11-01T19:43:47.216Z,95309.28
2022-11-01T19:45:56.640Z,95310.13
2022-11-01T19:47:58.598Z,95305.38
2022-11-01T19:50:00.367Z,95302.28
2022-11-01T19:52:07.758Z,95299.16
2022-11-01T19:54:11.520Z,95314.13
2022-11-01T19:56:17.378Z,95311.66
2022-11-01T19:58:22.747Z,95319.88
2022-11-01T20:00:25.463Z,95315.31
2022-11-01T20:02:27.180Z,95313.72
2022-11-01T20:04:31.314Z,95318.19
2022-11-01T20:06:37.345Z,95322.66
2022-11-01T20:08:40.568Z,95312.56
2022-11-01T20:10:42.195Z,95317.19
2022-11-01T20:12:44.899Z,95317.00
2022-11-01T20:14:46.681Z,95319.22
2022-11-01T20:16:48.835Z,95319.22
2022-11-01T20:18:50.414Z,95320.84
2022-11-01T20:20:54.006Z,95313.72
2022-11-01T20:23:20.213Z,95319.53
2022-11-01T20:25:17.191Z,95319.38
2022-11-01T20:27:18.941Z,95314.25
2022-11-01T20:29:20.771Z,95317.91
2022-11-01T20:31:22.396Z,95319.44
2022-11-01T20:33:25.806Z,95323.91
2022-11-01T20:35:27.377Z,95321.44
2022-11-01T20:37:29.385Z,95318.53
2022-11-01T20:39:31.044Z,95321.22
2022-11-01T20:41:32.656Z,95319.81
2022-11-01T20:43:34.404Z,95321.66
2022-11-01T20:45:36.115Z,95320.63
2022-11-01T20:47:40.392Z,95318.84
2022-11-01T20:49:44.368Z,95318.66
2022-11-01T20:51:46.115Z,95326.78
2022-11-01T20:53:47.680Z,95326.34
2022-11-01T20:55:49.372Z,95332.34
2022-11-01T20:57:51.547Z,95322.34
2022-11-01T20:59:53.133Z,95332.47
2022-11-01T21:01:55.393Z,95329.81
2022-11-01T21:03:57.576Z,95324.19
2022-11-01T21:05:59.158Z,95330.09
2022-11-01T21:08:11.178Z,95328.28
2022-11-01T21:10:33.823Z,95325.31
2022-11-01T21:12:44.629Z,95330.41
2022-11-01T21:14:46.392Z,95332.22
2022-11-01T21:16:48.261Z,95331.41
2022-11-01T21:18:53.029Z,95325.75
2022-11-01T21:20:54.719Z,95323.13
2022-11-01T21:23:00.884Z,95324.13
2022-11-01T21:25:02.860Z,95324.66
2022-11-01T21:27:10.664Z,95326.16
2022-11-01T21:29:28.373Z,95329.81
2022-11-01T21:31:32.044Z,95329.16
2022-11-01T21:33:36.568Z,95332.63
2022-11-01T21:35:40.989Z,95334.44
2022-11-01T21:37:42.743Z,95323.88
2022-11-01T21:39:44.391Z,95325.88
2022-11-01T21:41:57.931Z,95330.84
2022-11-01T21:44:10.987Z,95323.63
2022-11-01T21:46:21.008Z,95324.97
2022-11-01T21:48:27.636Z,95326.97
2022-11-01T21:50:29.329Z,95325.66
2022-11-01T21:52:30.903Z,95323.03
2022-11-01T21:54:34.262Z,95316.75
2022-11-01T21:56:35.936Z,95312.47
2022-11-01T21:58:37.537Z,95316.09
2022-11-01T22:00:39.095Z,95321.72
2022-11-01T22:02:40.789Z,95310.00
2022-11-01T22:04:42.665Z,95318.56
2022-11-01T22:06:44.733Z,95313.25
2022-11-01T22:08:46.412Z,95318.34
2022-11-01T22:10:48.011Z,95318.16
2022-11-01T22:12:49.583Z,95319.69
2022-11-01T22:14:51.252Z,95319.38
2022-11-01T22:16:53.059Z,95314.47
2022-11-01T22:18:54.604Z,95315.78
2022-11-01T22:20:56.377Z,95315.50
2022-11-01T22:22:57.990Z,95315.66
2022-11-01T22:24:59.554Z,95312.69
2022-11-01T22:27:02.252Z,95310.06
2022-11-01T22:29:03.830Z,95311.38
2022-11-01T22:31:06.159Z,95317.50
2022-11-01T22:33:09.192Z,95316.47
2022-11-01T22:35:10.754Z,95314.66
2022-11-01T22:37:13.148Z,95313.53
2022-11-01T22:39:21.308Z,95322.97
2022-11-01T22:41:29.883Z,95316.06
2022-11-01T22:43:35.024Z,95316.06
2022-11-01T22:45:36.958Z,95316.53
2022-11-01T22:47:39.434Z,95315.91
2022-11-01T22:49:42.206Z,95311.13
2022-11-01T22:51:46.235Z,95311.97
2022-11-01T22:53:48.110Z,95312.16
2022-11-01T22:55:51.670Z,95309.19
2022-11-01T22:58:15.982Z,95311.47
2022-11-01T23:00:44.031Z,95308.19
2022-11-01T23:02:45.918Z,95312.66
2022-11-01T23:04:48.018Z,95301.59
2022-11-01T23:06:50.829Z,95304.59
2022-11-01T23:08:53.638Z,95302.78
2022-11-01T23:10:57.440Z,95301.13
2022-11-01T23:13:29.824Z,95299.47
2022-11-01T23:15:33.083Z,95300.16
2022-11-01T23:17:36.757Z,95296.75
2022-11-01T23:21:40.928Z,95299.25
2022-11-01T23:23:47.186Z,95296.63
2022-11-01T23:25:49.337Z,95297.94
2022-11-01T23:27:50.955Z,95297.13
2022-11-01T23:29:54.440Z,95304.38
2022-11-01T23:31:56.095Z,95292.19
2022-11-01T23:33:57.717Z,95296.63
2022-11-01T23:36:00.983Z,95297.78
2022-11-01T23:38:02.982Z,95301.91
2022-11-01T23:40:13.120Z,95293.34
2022-11-01T23:42:19.248Z,95300.75
2022-11-01T23:44:28.068Z,95292.84
2022-11-01T23:46:30.799Z,95302.22
2022-11-01T23:48:32.683Z,95300.09
2022-11-01T23:50:35.918Z,95300.75
2022-11-01T23:52:46.310Z,95307.03
2022-11-01T23:54:48.002Z,95300.91
2022-11-01T23:56:49.716Z,95304.84
2022-11-01T23:58:56.731Z,95299.59
